Nellysford, Virginia
Current Conditions -  °F | °C
As of 5:15 PM on Sunday 21 Dec 2014 (Local Time) from KW13 Reporting Station
Clear Clear  
Wind Chill: 32°   Ceiling: Unl
Heat Index: 36°   Visibility: 10mi
Dew Point: 26°   Wind: 5mph
Humidity: 67%   Direction: 120°ESE
Pressure: 30.23"   Gusts: NA
Location:  37.91°N, 78.87°W
Report Text: KW13 212215Z AUTO 12004KT 10SM CLR 02/M03 A3023 RMK AO1 T00231032
Loading
Personal Weather Stations






























Interactive Weather Map New forecast layout! Learn more

10-Day Weather Forecast

Advertisements
Track Severe Weather on mobile